createdAt,value
2022-09-29T00:00:37.739Z,96583.38
2022-09-29T00:03:06.153Z,96587.69
2022-09-29T00:05:34.199Z,96579.88
2022-09-29T00:08:02.566Z,96583.09
2022-09-29T00:10:30.529Z,96584.19
2022-09-29T00:12:59.838Z,96586.56
2022-09-29T00:15:27.805Z,96587.09
2022-09-29T00:18:13.114Z,96575.56
2022-09-29T00:20:41.932Z,96591.91
2022-09-29T00:23:10.120Z,96583.03
2022-09-29T00:25:37.951Z,96582.50
2022-09-29T00:28:07.540Z,96580.34
2022-09-29T00:30:35.357Z,96578.72
2022-09-29T00:33:03.192Z,96579.53
2022-09-29T00:35:31.076Z,96573.09
2022-09-29T00:37:59.208Z,96571.22
2022-09-29T00:40:27.045Z,96577.38
2022-09-29T00:42:55.417Z,96571.75
2022-09-29T00:45:25.284Z,96570.94
2022-09-29T00:47:59.253Z,96570.16
2022-09-29T00:50:29.714Z,96560.50
2022-09-29T00:53:00.924Z,96559.41
2022-09-29T00:55:31.910Z,96558.34
2022-09-29T00:58:03.256Z,96554.06
2022-09-29T01:00:32.577Z,96550.84
2022-09-29T01:03:03.865Z,96550.03
2022-09-29T01:05:33.992Z,96552.47
2022-09-29T01:08:06.488Z,96551.38
2022-09-29T01:10:35.758Z,96546.81
2022-09-29T01:13:04.052Z,96548.69
2022-09-29T01:15:34.605Z,96549.75
2022-09-29T01:18:02.788Z,96545.47
2022-09-29T01:20:33.921Z,96550.28
2022-09-29T01:23:35.576Z,96551.66
2022-09-29T01:26:40.098Z,96553.78
2022-09-29T01:29:34.465Z,96554.31
2022-09-29T01:32:10.669Z,96554.06
2022-09-29T01:34:42.961Z,96549.78
2022-09-29T01:37:15.833Z,96550.34
2022-09-29T01:39:49.103Z,96550.59
2022-09-29T01:42:19.252Z,96556.25
2022-09-29T01:44:50.155Z,96556.50
2022-09-29T01:47:22.433Z,96557.03
2022-09-29T01:49:55.113Z,96547.91
2022-09-29T01:52:25.600Z,96550.03
2022-09-29T01:54:56.744Z,96554.56
2022-09-29T01:57:29.034Z,96555.38
2022-09-29T02:00:04.034Z,96561.56
2022-09-29T02:02:37.543Z,96554.31
2022-09-29T02:05:10.724Z,96555.94
2022-09-29T02:07:40.413Z,96562.41
2022-09-29T02:10:12.286Z,96560.25
2022-09-29T02:12:40.426Z,96563.75
2022-09-29T02:15:11.145Z,96562.97
2022-09-29T02:17:42.860Z,96563.22
2022-09-29T02:20:11.866Z,96565.91
2022-09-29T02:22:41.110Z,96566.19
2022-09-29T02:25:11.565Z,96572.06
2022-09-29T02:27:40.266Z,96573.66
2022-09-29T02:30:09.660Z,96573.41
2022-09-29T02:32:38.835Z,96574.72
2022-09-29T02:35:11.815Z,96573.66
2022-09-29T02:37:55.770Z,96572.31
2022-09-29T02:40:39.085Z,96568.59
2022-09-29T02:43:41.327Z,96571.53
2022-09-29T02:46:20.825Z,96566.69
2022-09-29T02:49:07.550Z,96571.22
2022-09-29T02:51:39.089Z,96577.09
2022-09-29T02:54:21.140Z,96567.16
2022-09-29T02:56:55.442Z,96566.09
2022-09-29T02:59:27.487Z,96567.38
2022-09-29T03:01:57.259Z,96564.16
2022-09-29T03:04:28.281Z,96567.38
2022-09-29T03:06:57.893Z,96564.66
2022-09-29T03:09:25.839Z,96557.72
2022-09-29T03:11:53.954Z,96553.94
2022-09-29T03:14:22.003Z,96552.06
2022-09-29T03:16:50.001Z,96547.50
2022-09-29T03:19:17.861Z,96543.22
2022-09-29T03:21:45.754Z,96543.50
2022-09-29T03:24:15.304Z,96538.13
2022-09-29T03:26:43.120Z,96539.97
2022-09-29T03:29:10.969Z,96537.81
2022-09-29T03:31:40.800Z,96530.56
2022-09-29T03:34:08.695Z,96528.69
2022-09-29T03:36:36.567Z,96533.78
2022-09-29T03:39:04.659Z,96528.69
2022-09-29T03:41:34.398Z,96525.75
2022-09-29T03:44:02.343Z,96524.13
2022-09-29T03:46:30.174Z,96532.97
2022-09-29T03:48:58.064Z,96538.63
2022-09-29T03:51:26.705Z,96541.06
2022-09-29T03:53:55.543Z,96531.44
2022-09-29T03:56:23.477Z,96536.84
2022-09-29T03:58:52.940Z,96531.25
2022-09-29T04:01:21.150Z,96528.88
2022-09-29T04:03:49.341Z,96526.22
2022-09-29T04:06:17.333Z,96531.09
2022-09-29T04:08:45.253Z,96526.28
2022-09-29T04:11:13.128Z,96524.66
2022-09-29T04:13:41.090Z,96527.06
2022-09-29T04:16:10.587Z,96525.19
2022-09-29T04:18:38.656Z,96526.81
2022-09-29T04:21:07.448Z,96534.84
2022-09-29T04:23:35.367Z,96532.97
2022-09-29T04:26:03.929Z,96533.53
2022-09-29T04:28:32.721Z,96538.88
2022-09-29T04:31:00.602Z,96537.28
2022-09-29T04:33:31.315Z,96527.38
2022-09-29T04:35:59.483Z,96524.69
2022-09-29T04:38:27.766Z,96523.09
2022-09-29T04:40:55.860Z,96527.66
2022-09-29T04:43:23.780Z,96528.72
2022-09-29T04:45:52.096Z,96528.47
2022-09-29T04:48:20.288Z,96529.00
2022-09-29T04:50:51.421Z,96533.31
2022-09-29T04:53:19.292Z,96536.50
2022-09-29T04:55:47.366Z,96542.66
2022-09-29T04:58:15.544Z,96534.41
2022-09-29T05:00:43.746Z,96537.13
2022-09-29T05:03:12.089Z,96541.16
2022-09-29T05:05:39.969Z,96545.69
2022-09-29T05:08:09.394Z,96542.22
2022-09-29T05:10:37.211Z,96548.91
2022-09-29T05:13:05.027Z,96557.22
2022-09-29T05:15:32.870Z,96555.59
2022-09-29T05:18:03.466Z,96568.72
2022-09-29T05:20:38.792Z,96559.09
2022-09-29T05:23:11.314Z,96569.00
2022-09-29T05:25:40.454Z,96573.28
2022-09-29T05:28:09.492Z,96575.97
2022-09-29T05:30:37.374Z,96573.03
2022-09-29T05:33:05.417Z,96572.75
2022-09-29T05:35:33.624Z,96582.66
2022-09-29T05:38:01.769Z,96577.84
2022-09-29T05:40:31.263Z,96582.94
2022-09-29T05:43:00.832Z,96586.69
2022-09-29T05:45:29.069Z,96578.91
2022-09-29T05:47:56.907Z,96580.25
2022-09-29T05:50:24.759Z,96579.97
2022-09-29T05:52:53.021Z,96586.13
2022-09-29T05:55:21.123Z,96586.63
2022-09-29T05:57:50.639Z,96585.56
2022-09-29T06:00:18.745Z,96582.06
2022-09-29T06:02:46.613Z,96582.09
2022-09-29T06:05:14.778Z,96580.72
2022-09-29T06:07:42.677Z,96582.88
2022-09-29T06:10:11.311Z,96575.88
2022-09-29T06:12:39.451Z,96580.97
2022-09-29T06:15:09.828Z,96579.91
2022-09-29T06:17:37.829Z,96576.94
2022-09-29T06:20:08.026Z,96575.31
2022-09-29T06:22:35.976Z,96564.84
2022-09-29T06:25:03.919Z,96582.53
2022-09-29T06:27:31.828Z,96577.97
2022-09-29T06:30:00.662Z,96581.44
2022-09-29T06:32:30.179Z,96575.81
2022-09-29T06:35:15.587Z,96580.91
2022-09-29T06:37:46.730Z,96589.22
2022-09-29T06:40:15.118Z,96587.06
2022-09-29T06:42:43.261Z,96578.22
2022-09-29T06:45:11.928Z,96590.28
2022-09-29T06:47:41.457Z,96595.09
2022-09-29T06:50:20.020Z,96594.81
2022-09-29T06:53:00.786Z,96597.75
2022-09-29T06:55:30.949Z,96601.19
2022-09-29T06:58:02.914Z,96599.03
2022-09-29T07:00:32.905Z,96597.16
2022-09-29T07:03:02.413Z,96601.72
2022-09-29T07:05:32.184Z,96599.56
2022-09-29T07:08:01.285Z,96602.22
2022-09-29T07:10:29.713Z,96615.63
2022-09-29T07:12:57.529Z,96608.91
2022-09-29T07:15:31.784Z,96601.38
2022-09-29T07:18:01.069Z,96604.56
2022-09-29T07:20:31.840Z,96600.53
2022-09-29T07:22:59.980Z,96610.19
2022-09-29T07:25:50.707Z,96611.00
2022-09-29T07:28:15.704Z,96616.63
2022-09-29T07:30:43.622Z,96623.31
2022-09-29T07:33:11.754Z,96615.50
2022-09-29T07:35:42.306Z,96617.91
2022-09-29T07:38:11.279Z,96624.03
2022-09-29T07:40:41.602Z,96612.22
2022-09-29T07:43:10.957Z,96619.69
2022-09-29T07:45:40.589Z,96613.22
2022-09-29T07:48:10.010Z,96609.09
2022-09-29T07:50:38.347Z,96608.78
2022-09-29T07:53:09.249Z,96605.81
2022-09-29T07:55:37.621Z,96619.19
2022-09-29T07:58:07.182Z,96622.63
2022-09-29T08:00:35.047Z,96627.13
2022-09-29T08:03:03.457Z,96629.50
2022-09-29T08:05:33.597Z,96621.34
2022-09-29T08:08:02.137Z,96616.53
2022-09-29T08:10:34.630Z,96621.63
2022-09-29T08:13:03.858Z,96629.94
2022-09-29T08:15:31.641Z,96631.50
2022-09-29T08:18:00.851Z,96636.81
2022-09-29T08:20:30.014Z,96629.19
2022-09-29T08:22:59.466Z,96640.34
2022-09-29T08:25:27.395Z,96638.06
2022-09-29T08:27:56.618Z,96637.38
2022-09-29T08:30:24.614Z,96635.72
2022-09-29T08:32:53.094Z,96630.56
2022-09-29T08:35:21.137Z,96640.66
2022-09-29T08:37:49.109Z,96645.16
2022-09-29T08:40:17.383Z,96650.56
2022-09-29T08:42:51.711Z,96642.44
2022-09-29T08:45:28.224Z,96647.00
2022-09-29T08:47:59.262Z,96645.56
2022-09-29T08:50:29.676Z,96653.25
2022-09-29T08:53:00.437Z,96652.59
2022-09-29T08:55:34.850Z,96656.75
2022-09-29T08:58:03.318Z,96654.00
2022-09-29T09:00:40.704Z,96656.06
2022-09-29T09:03:22.666Z,96650.50
2022-09-29T09:06:12.462Z,96651.34
2022-09-29T09:08:51.214Z,96660.16
2022-09-29T09:11:30.212Z,96655.28
2022-09-29T09:14:07.992Z,96655.66
2022-09-29T09:16:44.830Z,96652.75
2022-09-29T09:19:50.045Z,96660.22
2022-09-29T09:22:23.817Z,96663.38
2022-09-29T09:24:58.693Z,96654.38
2022-09-29T09:27:28.221Z,96649.13
2022-09-29T09:30:05.045Z,96653.63
2022-09-29T09:32:38.509Z,96659.66
2022-09-29T09:35:26.099Z,96661.84
2022-09-29T09:37:57.701Z,96658.75
2022-09-29T09:40:29.784Z,96670.63
2022-09-29T09:43:03.870Z,96673.53
2022-09-29T09:45:35.410Z,96676.97
2022-09-29T09:48:08.884Z,96673.59
2022-09-29T09:50:38.236Z,96669.78
2022-09-29T09:53:14.594Z,96683.75
2022-09-29T09:55:43.753Z,96678.56
2022-09-29T09:58:24.229Z,96683.00
2022-09-29T10:00:54.447Z,96681.97
2022-09-29T10:03:24.306Z,96675.25
2022-09-29T10:05:52.175Z,96684.97
2022-09-29T10:08:25.133Z,96686.88
2022-09-29T10:10:58.718Z,96685.06
2022-09-29T10:13:28.826Z,96678.78
2022-09-29T10:15:59.068Z,96680.59
2022-09-29T10:18:32.316Z,96682.56
2022-09-29T10:21:00.276Z,96690.78
2022-09-29T10:23:33.310Z,96686.63
2022-09-29T10:26:03.897Z,96684.31
2022-09-29T10:28:40.188Z,96687.22
2022-09-29T10:31:18.961Z,96685.84
2022-09-29T10:33:57.076Z,96683.97
2022-09-29T10:36:27.640Z,96680.84
2022-09-29T10:38:59.555Z,96686.66
2022-09-29T10:41:31.788Z,96685.75
2022-09-29T10:44:20.949Z,96685.47
2022-09-29T10:46:51.671Z,96683.50
2022-09-29T10:49:22.119Z,96676.78
2022-09-29T10:51:55.459Z,96680.00
2022-09-29T10:54:26.906Z,96687.59
2022-09-29T10:56:55.977Z,96688.31
2022-09-29T10:59:25.145Z,96690.91
2022-09-29T11:01:55.194Z,96691.38
2022-09-29T11:04:27.278Z,96682.25
2022-09-29T11:06:55.568Z,96685.16
2022-09-29T11:09:31.869Z,96682.94
2022-09-29T11:12:05.068Z,96686.81
2022-09-29T11:14:42.750Z,96683.59
2022-09-29T11:17:24.133Z,96681.72
2022-09-29T11:19:54.546Z,96691.41
2022-09-29T11:22:35.028Z,96693.09
2022-09-29T11:25:46.718Z,96682.94
2022-09-29T11:28:50.953Z,96685.56
2022-09-29T11:31:37.214Z,96685.81
2022-09-29T11:34:16.415Z,96673.69
2022-09-29T11:36:50.093Z,96679.84
2022-09-29T11:39:30.766Z,96677.13
2022-09-29T11:42:08.954Z,96676.09
2022-09-29T11:44:49.353Z,96685.00
2022-09-29T11:47:27.557Z,96681.41
2022-09-29T11:50:08.451Z,96688.16
2022-09-29T11:52:48.685Z,96685.06
2022-09-29T11:55:27.117Z,96682.47
2022-09-29T11:58:02.960Z,96675.38
2022-09-29T12:00:44.904Z,96686.53
2022-09-29T12:03:37.190Z,96683.09
2022-09-29T12:06:44.325Z,96680.47
2022-09-29T12:10:01.924Z,96681.16
2022-09-29T12:12:33.821Z,96683.59
2022-09-29T12:15:10.365Z,96679.88
2022-09-29T12:17:41.223Z,96676.63
2022-09-29T12:20:18.369Z,96676.50
2022-09-29T12:22:50.126Z,96676.31
2022-09-29T12:25:23.082Z,96669.44
2022-09-29T12:27:54.001Z,96678.06
2022-09-29T12:30:25.888Z,96668.69
2022-09-29T12:32:58.885Z,96674.72
2022-09-29T12:35:34.117Z,96672.19
2022-09-29T12:38:10.443Z,96667.75
2022-09-29T12:40:40.682Z,96670.19
2022-09-29T12:43:15.796Z,96674.03
2022-09-29T12:45:50.118Z,96677.13
2022-09-29T12:48:30.428Z,96673.13
2022-09-29T12:51:02.727Z,96666.31
2022-09-29T12:53:34.356Z,96663.28
2022-09-29T12:56:05.677Z,96660.56
2022-09-29T12:58:40.903Z,96661.19
2022-09-29T13:01:22.601Z,96664.56
2022-09-29T13:04:28.446Z,96655.75
2022-09-29T13:07:24.624Z,96663.81
2022-09-29T13:10:44.349Z,96669.03
2022-09-29T13:13:39.272Z,96669.78
2022-09-29T13:16:16.360Z,96673.91
2022-09-29T13:19:29.666Z,96679.31
2022-09-29T13:22:23.880Z,96680.38
2022-09-29T13:24:55.275Z,96681.16
2022-09-29T13:27:31.337Z,96683.72
2022-09-29T13:30:05.962Z,96692.00
2022-09-29T13:32:36.125Z,96681.16
2022-09-29T13:35:04.266Z,96685.63
2022-09-29T13:37:44.311Z,96685.75
2022-09-29T13:40:20.580Z,96679.81
2022-09-29T13:42:49.156Z,96682.03
2022-09-29T13:45:44.968Z,96678.97
2022-09-29T13:48:38.357Z,96684.69
2022-09-29T13:51:31.800Z,96688.50
2022-09-29T13:54:24.405Z,96694.69
2022-09-29T13:56:54.040Z,96686.72
2022-09-29T13:59:24.952Z,96697.25
2022-09-29T14:01:54.835Z,96694.44
2022-09-29T14:04:37.674Z,96698.56
2022-09-29T14:07:08.076Z,96697.25
2022-09-29T14:09:37.914Z,96699.16
2022-09-29T14:12:09.737Z,96696.78
2022-09-29T14:14:39.676Z,96698.38
2022-09-29T14:17:11.649Z,96705.06
2022-09-29T14:19:51.754Z,96702.06
2022-09-29T14:22:53.445Z,96701.06
2022-09-29T14:25:49.127Z,96709.19
2022-09-29T14:28:21.578Z,96713.19
2022-09-29T14:30:51.880Z,96716.84
2022-09-29T14:33:24.247Z,96717.09
2022-09-29T14:36:02.439Z,96724.84
2022-09-29T14:38:32.851Z,96728.72
2022-09-29T14:41:04.343Z,96728.44
2022-09-29T14:43:39.314Z,96732.06
2022-09-29T14:46:37.212Z,96738.88
2022-09-29T14:49:43.487Z,96731.97
2022-09-29T14:52:21.820Z,96735.19
2022-09-29T14:54:58.071Z,96739.41
2022-09-29T14:57:40.067Z,96743.72
2022-09-29T15:00:13.156Z,96742.81
2022-09-29T15:02:44.879Z,96740.81
2022-09-29T15:05:17.355Z,96744.72
2022-09-29T15:07:45.172Z,96747.84
2022-09-29T15:10:23.673Z,96753.06
2022-09-29T15:12:52.673Z,96745.75
2022-09-29T15:15:34.737Z,96743.66
2022-09-29T15:18:16.588Z,96746.50
2022-09-29T15:20:55.356Z,96741.69
2022-09-29T15:24:00.789Z,96742.00
2022-09-29T15:26:32.665Z,96745.19
2022-09-29T15:29:01.385Z,96743.59
2022-09-29T15:31:31.571Z,96748.81
2022-09-29T15:33:59.456Z,96750.78
2022-09-29T15:36:32.506Z,96754.91
2022-09-29T15:39:02.358Z,96749.00
2022-09-29T15:41:33.196Z,96754.81
2022-09-29T15:44:02.509Z,96762.84
2022-09-29T15:46:37.330Z,96770.16
2022-09-29T15:49:13.213Z,96765.16
2022-09-29T15:51:44.715Z,96769.75
2022-09-29T15:54:14.200Z,96769.06
2022-09-29T15:56:56.468Z,96773.88
2022-09-29T15:59:41.591Z,96774.56
2022-09-29T16:02:16.978Z,96778.00
2022-09-29T16:04:45.318Z,96787.00
2022-09-29T16:07:22.409Z,96773.59
2022-09-29T16:09:50.698Z,96776.38
2022-09-29T16:12:21.657Z,96782.09
2022-09-29T16:14:50.281Z,96782.91
2022-09-29T16:17:18.151Z,96783.78
2022-09-29T16:19:47.826Z,96781.19
2022-09-29T16:22:21.912Z,96786.69
2022-09-29T16:24:55.416Z,96788.09
2022-09-29T16:27:47.688Z,96791.09
2022-09-29T16:30:27.332Z,96784.00
2022-09-29T16:32:58.541Z,96795.41
2022-09-29T16:35:41.168Z,96795.50
2022-09-29T16:38:31.185Z,96801.00
2022-09-29T16:40:59.332Z,96809.16
2022-09-29T16:43:30.672Z,96806.84
2022-09-29T16:46:01.030Z,96806.31
2022-09-29T16:48:31.704Z,96812.91
2022-09-29T16:51:05.721Z,96825.91
2022-09-29T16:53:38.138Z,96824.09
2022-09-29T16:56:10.740Z,96828.47
2022-09-29T16:58:38.556Z,96826.66
2022-09-29T17:01:07.691Z,96836.44
2022-09-29T17:03:36.330Z,96835.72
2022-09-29T17:06:05.576Z,96843.59
2022-09-29T17:08:34.944Z,96839.06
2022-09-29T17:11:04.441Z,96846.16
2022-09-29T17:13:35.068Z,96843.56
2022-09-29T17:16:03.915Z,96839.09
2022-09-29T17:18:32.167Z,96837.56
2022-09-29T17:21:00.153Z,96839.81
2022-09-29T17:23:28.039Z,96834.78
2022-09-29T17:26:16.445Z,96847.31
2022-09-29T17:28:44.631Z,96854.72
2022-09-29T17:31:13.687Z,96855.88
2022-09-29T17:33:41.988Z,96857.25
2022-09-29T17:36:14.225Z,96861.97
2022-09-29T17:38:42.396Z,96865.75
2022-09-29T17:41:16.214Z,96868.03
2022-09-29T17:43:47.744Z,96872.41
2022-09-29T17:46:16.729Z,96878.66
2022-09-29T17:48:44.955Z,96882.72
2022-09-29T17:51:14.857Z,96887.94
2022-09-29T17:53:42.734Z,96896.81
2022-09-29T17:56:19.568Z,96894.41
2022-09-29T17:58:49.069Z,96900.06
2022-09-29T18:01:18.338Z,96899.03
2022-09-29T18:03:46.236Z,96899.84
2022-09-29T18:06:19.694Z,96904.13
2022-09-29T18:08:50.374Z,96905.75
2022-09-29T18:11:23.326Z,96905.19
2022-09-29T18:13:53.111Z,96909.78
2022-09-29T18:16:23.027Z,96912.47
2022-09-29T18:18:55.575Z,96912.75
2022-09-29T18:21:24.883Z,96923.81
2022-09-29T18:23:53.221Z,96925.69
2022-09-29T18:26:21.431Z,96920.88
2022-09-29T18:28:53.731Z,96923.56
2022-09-29T18:31:27.840Z,96930.03
2022-09-29T18:33:56.033Z,96926.03
2022-09-29T18:36:24.030Z,96933.59
2022-09-29T18:38:52.036Z,96934.94
2022-09-29T18:41:21.629Z,96929.81
2022-09-29T18:43:50.004Z,96933.31
2022-09-29T18:46:18.482Z,96941.16
2022-09-29T18:48:47.773Z,96941.94
2022-09-29T18:51:21.094Z,96935.75
2022-09-29T18:53:49.981Z,96937.41
2022-09-29T18:56:18.382Z,96933.09
2022-09-29T18:58:46.399Z,96940.38
2022-09-29T19:01:24.619Z,96950.63
2022-09-29T19:03:54.057Z,96946.63
2022-09-29T19:06:22.190Z,96947.69
2022-09-29T19:08:52.085Z,96945.00
2022-09-29T19:11:22.205Z,96952.56
2022-09-29T19:13:52.354Z,96954.22
2022-09-29T19:16:20.176Z,96962.56
2022-09-29T19:18:50.230Z,96956.66
2022-09-29T19:21:19.486Z,96953.97
2022-09-29T19:23:47.861Z,96957.50
2022-09-29T19:26:19.222Z,96960.78
2022-09-29T19:28:48.186Z,96966.72
2022-09-29T19:31:20.441Z,96967.28
2022-09-29T19:33:48.929Z,96962.19
2022-09-29T19:36:20.203Z,96966.50
2022-09-29T19:38:48.785Z,96965.19
2022-09-29T19:41:18.749Z,96968.19
2022-09-29T19:43:47.548Z,96976.81
2022-09-29T19:46:16.410Z,96984.91
2022-09-29T19:48:44.861Z,96974.69
2022-09-29T19:51:28.870Z,96981.44
2022-09-29T19:54:11.437Z,96989.00
2022-09-29T19:56:40.426Z,96981.78
2022-09-29T19:59:10.388Z,96983.94
2022-09-29T20:01:38.766Z,96994.97
2022-09-29T20:04:06.773Z,96993.09
2022-09-29T20:06:36.034Z,96990.41
2022-09-29T20:09:06.051Z,97000.13
2022-09-29T20:11:35.040Z,97002.03
2022-09-29T20:14:03.384Z,97003.91
2022-09-29T20:16:33.527Z,97004.97
2022-09-29T20:19:01.372Z,97003.38
2022-09-29T20:21:29.272Z,97006.88
2022-09-29T20:23:57.939Z,97006.41
2022-09-29T20:26:27.677Z,97003.97
2022-09-29T20:28:55.472Z,97011.25
2022-09-29T20:31:24.260Z,97017.19
2022-09-29T20:33:52.760Z,97021.75
2022-09-29T20:36:20.943Z,97021.50
2022-09-29T20:38:48.782Z,97023.88
2022-09-29T20:41:17.106Z,97024.44
2022-09-29T20:43:51.246Z,97020.97
2022-09-29T20:46:19.158Z,97024.47
2022-09-29T20:48:48.669Z,97026.88
2022-09-29T20:51:16.593Z,97032.53
2022-09-29T20:53:46.411Z,97036.81
2022-09-29T20:56:16.359Z,97044.63
2022-09-29T20:58:45.262Z,97037.63
2022-09-29T21:01:18.094Z,97038.97
2022-09-29T21:03:50.063Z,97042.47
2022-09-29T21:06:18.653Z,97043.81
2022-09-29T21:08:46.497Z,97050.00
2022-09-29T21:11:14.465Z,97051.88
2022-09-29T21:13:42.754Z,97049.47
2022-09-29T21:16:10.945Z,97061.81
2022-09-29T21:18:40.468Z,97058.59
2022-09-29T21:21:09.994Z,97069.06
2022-09-29T21:23:40.052Z,97074.19
2022-09-29T21:26:12.176Z,97063.16
2022-09-29T21:28:40.073Z,97073.38
2022-09-29T21:31:09.853Z,97077.13
2022-09-29T21:33:38.229Z,97085.19
2022-09-29T21:36:09.751Z,97080.91
2022-09-29T21:38:39.668Z,97092.97
2022-09-29T21:41:09.359Z,97089.78
2022-09-29T21:43:38.589Z,97095.69
2022-09-29T21:46:08.923Z,97107.75
2022-09-29T21:48:36.931Z,97103.44
2022-09-29T21:51:08.088Z,97109.06
2022-09-29T21:53:38.568Z,97107.97
2022-09-29T21:56:08.206Z,97103.91
2022-09-29T21:58:36.363Z,97103.63
2022-09-29T22:01:09.095Z,97107.91
2022-09-29T22:03:41.139Z,97104.16
2022-09-29T22:06:14.573Z,97101.75
2022-09-29T22:08:43.397Z,97103.34
2022-09-29T22:11:13.185Z,97117.88
2022-09-29T22:13:42.640Z,97121.91
2022-09-29T22:16:12.179Z,97122.47
2022-09-29T22:18:42.146Z,97126.22
2022-09-29T22:21:13.147Z,97128.63
2022-09-29T22:23:41.224Z,97122.19
2022-09-29T22:26:12.401Z,97119.75
2022-09-29T22:28:40.426Z,97129.38
2022-09-29T22:31:10.114Z,97136.34
2022-09-29T22:33:38.863Z,97135.25
2022-09-29T22:36:07.423Z,97135.78
2022-09-29T22:38:37.835Z,97138.47
2022-09-29T22:41:09.489Z,97137.66
2022-09-29T22:43:37.652Z,97143.28
2022-09-29T22:46:06.754Z,97141.38
2022-09-29T22:48:34.640Z,97142.50
2022-09-29T22:51:03.182Z,97140.09
2022-09-29T22:53:31.132Z,97143.28
2022-09-29T22:56:01.386Z,97148.41
2022-09-29T22:58:29.357Z,97138.22
2022-09-29T23:01:04.612Z,97137.69
2022-09-29T23:03:32.473Z,97134.47
2022-09-29T23:06:00.466Z,97132.84
2022-09-29T23:08:30.492Z,97133.63
2022-09-29T23:10:58.861Z,97134.16
2022-09-29T23:13:28.255Z,97128.53
2022-09-29T23:15:56.047Z,97121.78
2022-09-29T23:18:23.997Z,97131.22
2022-09-29T23:20:51.796Z,97126.09
2022-09-29T23:23:19.640Z,97136.84
2022-09-29T23:25:50.614Z,97129.84
2022-09-29T23:28:18.889Z,97145.66
2022-09-29T23:30:48.170Z,97140.00
2022-09-29T23:33:16.087Z,97141.09
2022-09-29T23:35:43.974Z,97148.06
2022-09-29T23:38:31.794Z,97153.97
2022-09-29T23:41:00.900Z,97153.47
2022-09-29T23:43:28.862Z,97155.78
2022-09-29T23:45:58.430Z,97148.22
2022-09-29T23:48:26.321Z,97150.31
2022-09-29T23:50:54.317Z,97161.31
2022-09-29T23:53:22.449Z,97158.09
2022-09-29T23:55:50.566Z,97160.78
2022-09-29T23:58:18.482Z,97154.34
